Decoded METAR's for Botswana

 
 
Print Page

Back to Weather Page

 
 

Francistown - Botswana, FBFT

ADDS - TAFS form results

Aviation Digital Data Service (ADDS)

Output produced by TAFs form (1205 UTC 21 September 2017)
found at http://aviationweather.gov/adds/tafs/
 
METAR text: FBFT 211100Z 09012KT 040V140 CAVOK 30/08 Q1023
Conditions at: FBFT (FRANCISTOWN , BW) observed 1100 UTC 21 September 2017
Temperature: 30.0°C (86°F)
Dewpoint: 8.0°C (46°F) [RH = 25%]
Pressure (altimeter): 30.21 inches Hg (1023.0 mb)
Winds: from the E (90 degrees) at 14 MPH (12 knots; 6.2 m/s)
Visibility: 6 or more miles (10+ km)
Ceiling: ceiling and visibility are OK
Clouds: unknown
Weather: no significant weather observed at this time

Array
Ghanzi - Botswana, FBGZ

ADDS - TAFS form results

Aviation Digital Data Service (ADDS)

Output produced by TAFs form (1205 UTC 21 September 2017)
found at http://aviationweather.gov/adds/tafs/
 
You entered "FBGZ"

Sorry, either there are no data available for your request or you did not enter any valid ICAO airport abbreviations.

See stations.txt for a list of known METAR and TAF locations. Then go back to the ADDS METARs or TAFs page and try again
 
Please try again and, if problems persist, then send mail to ncep.awc.adds@noaa.gov
Array
Kasane - Botswana, FBKE

ADDS - TAFS form results

Aviation Digital Data Service (ADDS)

Output produced by TAFs form (1205 UTC 21 September 2017)
found at http://aviationweather.gov/adds/tafs/
 
METAR text: FBKE 211100Z 10012KT 060V160 CAVOK 33/07 Q1020
Conditions at: FBKE (KASANE , BW) observed 1100 UTC 21 September 2017
Temperature: 33.0°C (91°F)
Dewpoint: 7.0°C (45°F) [RH = 20%]
Pressure (altimeter): 30.12 inches Hg (1020.0 mb)
Winds: from the E (100 degrees) at 14 MPH (12 knots; 6.2 m/s)
Visibility: 6 or more miles (10+ km)
Ceiling: ceiling and visibility are OK
Clouds: unknown
Weather: no significant weather observed at this time

Array
Maun - Botswana, FBMN

ADDS - TAFS form results

Aviation Digital Data Service (ADDS)

Output produced by TAFs form (1205 UTC 21 September 2017)
found at http://aviationweather.gov/adds/tafs/
 
METAR text: FBMN 211100Z 09009KT 9999 FEW030 33/12 Q1021
Conditions at: FBMN (MAUN , BW) observed 1100 UTC 21 September 2017
Temperature: 33.0°C (91°F)
Dewpoint: 12.0°C (54°F) [RH = 28%]
Pressure (altimeter): 30.15 inches Hg (1021.0 mb)
Winds: from the E (90 degrees) at 10 MPH (9 knots; 4.7 m/s)
Visibility: 6 or more miles (10+ km)
Ceiling: at least 12,000 feet AGL
Clouds: few clouds at 3000 feet AGL
Weather: no significant weather observed at this time

Array
Gaberone Sir Seretsi Kama - Botswana, FBSK

ADDS - TAFS form results

Aviation Digital Data Service (ADDS)

Output produced by TAFs form (1205 UTC 21 September 2017)
found at http://aviationweather.gov/adds/tafs/
 
METAR text: FBSK 211100Z 02011KT 350V060 CAVOK 29/07 Q1024 NOSIG
Conditions at: FBSK (SIR SERETSE KHAM, BW) observed 1100 UTC 21 September 2017
Temperature: 29.0°C (84°F)
Dewpoint: 7.0°C (45°F) [RH = 25%]
Pressure (altimeter): 30.24 inches Hg (1024.0 mb)
Winds: from the NNE (20 degrees) at 13 MPH (11 knots; 5.7 m/s)
Visibility: 6 or more miles (10+ km)
Ceiling: ceiling and visibility are OK
Clouds: unknown
Weather: no significant weather observed at this time

Array
Selebi Phikwe - Botswana, FBSP

ADDS - TAFS form results

Aviation Digital Data Service (ADDS)

Output produced by TAFs form (1205 UTC 21 September 2017)
found at http://aviationweather.gov/adds/tafs/
 
METAR text: FBSP 211100Z 08007KT CAVOK 28/12 Q1024
Conditions at: FBSP (SELEBI PHIKWE , BW) observed 1100 UTC 21 September 2017
Temperature: 28.0°C (82°F)
Dewpoint: 12.0°C (54°F) [RH = 37%]
Pressure (altimeter): 30.24 inches Hg (1024.0 mb)
Winds: from the E (80 degrees) at 8 MPH (7 knots; 3.6 m/s)
Visibility: 6 or more miles (10+ km)
Ceiling: ceiling and visibility are OK
Clouds: unknown
Weather: no significant weather observed at this time

Array